createdAt,value
2018-02-09T00:02:01.825Z,94141.17
2018-02-09T00:04:30.694Z,94145.23
2018-02-09T00:06:58.565Z,94143.52
2018-02-09T00:09:26.660Z,94144.70
2018-02-09T00:11:54.555Z,94138.19
2018-02-09T00:14:24.644Z,94134.83
2018-02-09T00:16:52.713Z,94132.49
2018-02-09T00:19:20.555Z,94134.92
2018-02-09T00:21:48.640Z,94135.88
2018-02-09T00:24:16.681Z,94136.57
2018-02-09T00:26:44.549Z,94137.72
2018-02-09T00:29:12.438Z,94139.52
2018-02-09T00:31:40.282Z,94137.39
2018-02-09T00:34:08.186Z,94143.90
2018-02-09T00:36:36.065Z,94136.43
2018-02-09T00:39:04.235Z,94145.05
2018-02-09T00:41:32.625Z,94143.64
2018-02-09T00:44:00.542Z,94147.05
2018-02-09T00:46:28.509Z,94141.59
2018-02-09T00:48:57.726Z,94147.86
2018-02-09T00:51:25.631Z,94150.27
2018-02-09T00:53:53.510Z,94140.50
2018-02-09T00:56:21.650Z,94147.99
2018-02-09T00:58:49.467Z,94145.20
2018-02-09T01:01:17.364Z,94148.34
2018-02-09T01:03:45.486Z,94148.41
2018-02-09T01:06:13.393Z,94144.66
2018-02-09T01:08:42.031Z,94142.05
2018-02-09T01:11:09.956Z,94142.57
2018-02-09T01:13:37.817Z,94135.06
2018-02-09T01:16:06.956Z,94133.06
2018-02-09T01:18:34.921Z,94132.97
2018-02-09T01:21:03.010Z,94128.66
2018-02-09T01:23:31.072Z,94127.05
2018-02-09T01:25:59.138Z,94134.47
2018-02-09T01:28:27.146Z,94126.66
2018-02-09T01:30:55.286Z,94131.52
2018-02-09T01:33:23.255Z,94131.11
2018-02-09T01:35:51.174Z,94124.33
2018-02-09T01:38:19.087Z,94123.13
2018-02-09T01:40:47.034Z,94130.49
2018-02-09T01:43:14.894Z,94127.47
2018-02-09T01:45:42.896Z,94119.19
2018-02-09T01:48:10.906Z,94119.66
2018-02-09T01:50:38.795Z,94125.08
2018-02-09T01:53:06.907Z,94125.15
2018-02-09T01:55:34.978Z,94123.38
2018-02-09T01:58:02.876Z,94115.09
2018-02-09T02:00:31.287Z,94119.11
2018-02-09T02:02:59.309Z,94116.02
2018-02-09T02:05:27.368Z,94117.20
2018-02-09T02:07:55.365Z,94112.66
2018-02-09T02:10:23.433Z,94115.94
2018-02-09T02:12:51.296Z,94108.34
2018-02-09T02:15:19.350Z,94110.78
2018-02-09T02:17:47.425Z,94111.47
2018-02-09T02:20:15.571Z,94110.41
2018-02-09T02:22:43.440Z,94108.67
2018-02-09T02:25:11.386Z,94105.14
2018-02-09T02:27:39.274Z,94109.55
2018-02-09T02:30:07.344Z,94112.02
2018-02-09T02:32:36.059Z,94112.79
2018-02-09T02:35:04.026Z,94113.08
2018-02-09T02:37:31.895Z,94111.52
2018-02-09T02:39:59.863Z,94109.55
2018-02-09T02:42:27.934Z,94107.91
2018-02-09T02:44:55.946Z,94103.06
2018-02-09T02:47:24.060Z,94104.48
2018-02-09T02:49:51.925Z,94101.72
2018-02-09T02:52:19.813Z,94095.64
2018-02-09T02:54:47.790Z,94097.06
2018-02-09T02:57:15.930Z,94096.70
2018-02-09T02:59:44.029Z,94093.50
2018-02-09T03:02:12.099Z,94093.90
2018-02-09T03:04:40.176Z,94092.80
2018-02-09T03:07:08.244Z,94093.45
2018-02-09T03:09:36.316Z,94093.45
2018-02-09T03:12:04.041Z,94094.00
2018-02-09T03:14:31.857Z,94089.63
2018-02-09T03:17:00.027Z,94090.52
2018-02-09T03:19:27.987Z,94086.32
2018-02-09T03:21:55.820Z,94088.40
2018-02-09T03:24:23.714Z,94092.80
2018-02-09T03:26:51.796Z,94083.78
2018-02-09T03:29:19.866Z,94080.28
2018-02-09T03:31:47.665Z,94081.55
2018-02-09T03:34:15.642Z,94087.41
2018-02-09T03:36:43.776Z,94085.52
2018-02-09T03:39:11.794Z,94090.21
2018-02-09T03:41:40.328Z,94086.02
2018-02-09T03:44:08.324Z,94084.78
2018-02-09T03:46:36.441Z,94087.34
2018-02-09T03:49:04.531Z,94087.34
2018-02-09T03:51:32.622Z,94081.44
2018-02-09T03:54:00.379Z,94077.33
2018-02-09T03:56:28.916Z,94081.22
2018-02-09T03:58:56.808Z,94082.17
2018-02-09T04:01:24.669Z,94083.41
2018-02-09T04:03:52.542Z,94080.50
2018-02-09T04:06:20.352Z,94081.20
2018-02-09T04:08:48.271Z,94083.23
2018-02-09T04:11:16.071Z,94085.19
2018-02-09T04:13:44.003Z,94087.52
2018-02-09T04:16:12.598Z,94082.55
2018-02-09T04:18:40.693Z,94073.22
2018-02-09T04:21:08.703Z,94073.55
2018-02-09T04:23:36.597Z,94073.51
2018-02-09T04:26:04.463Z,94072.89
2018-02-09T04:28:32.432Z,94073.58
2018-02-09T04:31:00.539Z,94068.98
2018-02-09T04:33:28.632Z,94070.63
2018-02-09T04:35:56.529Z,94059.62
2018-02-09T04:38:24.551Z,94069.02
2018-02-09T04:40:52.611Z,94062.45
2018-02-09T04:43:20.461Z,94057.54
2018-02-09T04:45:48.326Z,94055.14
2018-02-09T04:48:17.062Z,94059.98
2018-02-09T04:50:44.931Z,94056.75
2018-02-09T04:53:12.982Z,94058.75
2018-02-09T04:55:40.918Z,94053.14
2018-02-09T04:58:09.744Z,94055.55
2018-02-09T05:00:37.614Z,94059.82
2018-02-09T05:03:05.680Z,94059.20
2018-02-09T05:05:33.715Z,94056.86
2018-02-09T05:08:01.822Z,94050.62
2018-02-09T05:10:29.665Z,94061.30
2018-02-09T05:12:57.611Z,94058.64
2018-02-09T05:15:25.735Z,94053.64
2018-02-09T05:17:53.792Z,94061.14
2018-02-09T05:20:21.777Z,94060.44
2018-02-09T05:22:49.763Z,94061.16
2018-02-09T05:25:17.618Z,94064.16
2018-02-09T05:27:45.658Z,94070.48
2018-02-09T05:30:13.959Z,94067.02
2018-02-09T05:32:42.015Z,94065.07
2018-02-09T05:35:10.397Z,94069.80
2018-02-09T05:37:38.328Z,94069.66
2018-02-09T05:40:06.349Z,94065.83
2018-02-09T05:42:34.435Z,94066.30
2018-02-09T05:45:02.435Z,94069.42
2018-02-09T05:47:30.359Z,94068.59
2018-02-09T05:49:58.431Z,94062.77
2018-02-09T05:52:28.904Z,94061.42
2018-02-09T05:54:57.751Z,94057.52
2018-02-09T05:57:25.765Z,94050.70
2018-02-09T05:59:53.609Z,94050.93
2018-02-09T06:02:22.497Z,94052.65
2018-02-09T06:04:50.653Z,94053.11
2018-02-09T06:07:18.525Z,94053.28
2018-02-09T06:09:46.876Z,94048.59
2018-02-09T06:12:15.066Z,94056.83
2018-02-09T06:14:42.945Z,94056.00
2018-02-09T06:17:10.873Z,94061.64
2018-02-09T06:19:38.745Z,94048.90
2018-02-09T06:22:06.731Z,94059.28
2018-02-09T06:24:34.656Z,94063.69
2018-02-09T06:27:03.890Z,94064.37
2018-02-09T06:29:33.218Z,94060.17
2018-02-09T06:32:00.975Z,94058.13
2018-02-09T06:34:29.154Z,94058.66
2018-02-09T06:36:57.158Z,94060.69
2018-02-09T06:39:25.071Z,94063.67
2018-02-09T06:41:53.185Z,94066.31
2018-02-09T06:44:21.187Z,94066.98
2018-02-09T06:46:48.904Z,94069.39
2018-02-09T06:49:16.970Z,94069.21
2018-02-09T06:51:45.032Z,94069.48
2018-02-09T06:54:12.826Z,94074.05
2018-02-09T06:56:41.871Z,94071.47
2018-02-09T06:59:09.577Z,94072.98
2018-02-09T07:01:37.678Z,94071.54
2018-02-09T07:04:05.693Z,94070.31
2018-02-09T07:06:33.590Z,94070.31
2018-02-09T07:09:01.502Z,94076.16
2018-02-09T07:11:29.393Z,94073.28
2018-02-09T07:13:57.487Z,94078.04
2018-02-09T07:16:25.557Z,94073.18
2018-02-09T07:18:53.628Z,94073.98
2018-02-09T07:21:21.496Z,94074.58
2018-02-09T07:23:49.571Z,94066.72
2018-02-09T07:26:17.640Z,94070.08
2018-02-09T07:28:45.662Z,94069.45
2018-02-09T07:31:13.784Z,94066.02
2018-02-09T07:33:41.854Z,94071.35
2018-02-09T07:36:09.928Z,94064.58
2018-02-09T07:38:37.800Z,94067.62
2018-02-09T07:41:05.868Z,94063.58
2018-02-09T07:43:33.912Z,94061.52
2018-02-09T07:46:01.883Z,94064.55
2018-02-09T07:48:29.878Z,94059.86
2018-02-09T07:50:57.944Z,94063.00
2018-02-09T07:53:25.830Z,94057.63
2018-02-09T07:55:53.686Z,94060.94
2018-02-09T07:58:21.789Z,94050.73
2018-02-09T08:00:50.111Z,94049.95
2018-02-09T08:03:17.836Z,94050.13
2018-02-09T08:05:45.867Z,94047.47
2018-02-09T08:08:13.814Z,94047.47
2018-02-09T08:10:42.530Z,94046.75
2018-02-09T08:13:10.597Z,94040.91
2018-02-09T08:15:38.670Z,94045.85
2018-02-09T08:18:06.724Z,94043.34
2018-02-09T08:20:34.813Z,94034.66
2018-02-09T08:23:03.362Z,94033.91
2018-02-09T08:25:31.881Z,94035.69
2018-02-09T08:27:59.821Z,94031.22
2018-02-09T08:30:27.820Z,94035.06
2018-02-09T08:32:55.874Z,94036.59
2018-02-09T08:35:23.960Z,94031.64
2018-02-09T08:37:52.851Z,94032.98
2018-02-09T08:40:20.779Z,94027.57
2018-02-09T08:42:48.895Z,94024.71
2018-02-09T08:45:16.964Z,94029.97
2018-02-09T08:47:45.041Z,94027.00
2018-02-09T08:50:12.930Z,94022.23
2018-02-09T08:52:40.961Z,94029.64
2018-02-09T08:55:08.770Z,94026.53
2018-02-09T08:57:36.608Z,94018.30
2018-02-09T09:00:04.639Z,94020.64
2018-02-09T09:02:33.570Z,94021.77
2018-02-09T09:05:02.448Z,94022.28
2018-02-09T09:07:30.536Z,94023.78
2018-02-09T09:09:59.426Z,94018.63
2018-02-09T09:12:27.500Z,94019.31
2018-02-09T09:14:56.294Z,94018.93
2018-02-09T09:17:24.051Z,94021.45
2018-02-09T09:19:52.124Z,94020.01
2018-02-09T09:22:19.990Z,94017.16
2018-02-09T09:24:47.839Z,94015.48
2018-02-09T09:27:15.740Z,94015.69
2018-02-09T09:29:43.598Z,94007.42
2018-02-09T09:32:11.557Z,94013.11
2018-02-09T09:34:39.626Z,94002.03
2018-02-09T09:37:07.705Z,93989.94
2018-02-09T09:39:35.776Z,93992.47
2018-02-09T09:42:03.849Z,93992.31
2018-02-09T09:44:31.795Z,93988.37
2018-02-09T09:46:59.786Z,93984.25
2018-02-09T09:49:29.599Z,93984.64
2018-02-09T09:51:57.471Z,93974.69
2018-02-09T09:54:25.635Z,93973.88
2018-02-09T09:56:53.924Z,93974.91
2018-02-09T09:59:21.850Z,93970.30
2018-02-09T10:01:50.062Z,93975.80
2018-02-09T10:04:17.980Z,93964.61
2018-02-09T10:06:46.070Z,93958.88
2018-02-09T10:09:14.162Z,93954.54
2018-02-09T10:11:42.649Z,93946.34
2018-02-09T10:14:10.722Z,93948.39
2018-02-09T10:16:38.801Z,93937.68
2018-02-09T10:19:07.282Z,93936.97
2018-02-09T10:21:35.354Z,93932.78
2018-02-09T10:24:03.429Z,93932.67
2018-02-09T10:26:31.498Z,93925.97
2018-02-09T10:28:59.500Z,93929.11
2018-02-09T10:31:27.680Z,93927.38
2018-02-09T10:33:55.709Z,93921.06
2018-02-09T10:36:23.650Z,93920.02
2018-02-09T10:38:53.215Z,93916.58
2018-02-09T10:41:21.136Z,93914.19
2018-02-09T10:43:49.250Z,93909.13
2018-02-09T10:46:17.194Z,93900.78
2018-02-09T10:48:45.236Z,93898.00
2018-02-09T10:51:13.061Z,93893.23
2018-02-09T10:53:41.047Z,93891.28
2018-02-09T10:56:08.992Z,93877.18
2018-02-09T10:58:37.049Z,93882.44
2018-02-09T11:01:05.236Z,93876.52
2018-02-09T11:03:33.769Z,93875.43
2018-02-09T11:06:02.632Z,93869.66
2018-02-09T11:08:30.387Z,93857.03
2018-02-09T11:10:58.265Z,93850.55
2018-02-09T11:13:31.831Z,93850.37
2018-02-09T11:16:00.635Z,93842.54
2018-02-09T11:18:29.207Z,93843.14
2018-02-09T11:20:57.276Z,93840.95
2018-02-09T11:23:25.276Z,93845.13
2018-02-09T11:25:53.895Z,93832.81
2018-02-09T11:28:22.000Z,93832.45
2018-02-09T11:30:50.074Z,93831.23
2018-02-09T11:33:18.117Z,93824.41
2018-02-09T11:35:46.219Z,93822.42
2018-02-09T11:38:14.260Z,93819.28
2018-02-09T11:40:41.949Z,93817.63
2018-02-09T11:43:10.018Z,93815.95
2018-02-09T11:45:38.082Z,93814.94
2018-02-09T11:48:06.970Z,93808.45
2018-02-09T11:50:35.058Z,93810.50
2018-02-09T11:53:02.902Z,93808.43
2018-02-09T11:55:30.999Z,93802.20
2018-02-09T11:57:59.893Z,93806.16
2018-02-09T12:00:27.956Z,93799.73
2018-02-09T12:02:55.826Z,93790.95
2018-02-09T12:05:23.893Z,93787.49
2018-02-09T12:07:51.974Z,93784.44
2018-02-09T12:10:20.773Z,93785.23
2018-02-09T12:12:48.692Z,93781.45
2018-02-09T12:15:16.658Z,93775.63
2018-02-09T12:17:44.671Z,93772.35
2018-02-09T12:20:12.496Z,93773.08
2018-02-09T12:22:40.462Z,93757.39
2018-02-09T12:25:08.580Z,93762.42
2018-02-09T12:27:36.650Z,93752.50
2018-02-09T12:30:05.386Z,93754.42
2018-02-09T12:32:33.382Z,93743.64
2018-02-09T12:35:02.815Z,93739.11
2018-02-09T12:37:32.640Z,93731.03
2018-02-09T12:40:00.403Z,93727.09
2018-02-09T12:42:28.149Z,93729.41
2018-02-09T12:44:56.326Z,93719.19
2018-02-09T12:47:24.159Z,93714.81
2018-02-09T12:49:52.164Z,93711.63
2018-02-09T12:52:20.030Z,93711.60
2018-02-09T12:54:47.964Z,93709.83
2018-02-09T12:57:16.026Z,93710.40
2018-02-09T12:59:44.759Z,93703.46
2018-02-09T13:02:12.691Z,93700.15
2018-02-09T13:04:41.440Z,93696.75
2018-02-09T13:07:09.318Z,93693.38
2018-02-09T13:09:37.212Z,93688.05
2018-02-09T13:12:05.079Z,93688.55
2018-02-09T13:14:44.622Z,93682.81
2018-02-09T13:17:12.834Z,93679.28
2018-02-09T13:19:40.808Z,93687.22
2018-02-09T13:22:09.673Z,93683.79
2018-02-09T13:24:37.611Z,93675.80
2018-02-09T13:27:05.702Z,93679.95
2018-02-09T13:29:33.811Z,93679.83
2018-02-09T13:32:02.144Z,93678.78
2018-02-09T13:34:30.034Z,93669.38
2018-02-09T13:37:28.130Z,93673.78
2018-02-09T13:39:56.304Z,93667.78
2018-02-09T13:42:25.092Z,93669.75
2018-02-09T13:44:53.869Z,93662.56
2018-02-09T13:47:21.817Z,93658.58
2018-02-09T13:49:49.686Z,93657.11
2018-02-09T13:52:17.694Z,93653.02
2018-02-09T13:54:45.659Z,93650.52
2018-02-09T13:57:14.632Z,93647.33
2018-02-09T13:59:43.624Z,93647.66
2018-02-09T14:02:11.715Z,93648.86
2018-02-09T14:04:39.735Z,93645.68
2018-02-09T14:07:08.526Z,93646.88
2018-02-09T14:09:37.497Z,93643.69
2018-02-09T14:12:06.438Z,93647.36
2018-02-09T14:14:34.430Z,93653.72
2018-02-09T14:17:02.506Z,93649.66
2018-02-09T14:19:31.394Z,93643.02
2018-02-09T14:21:59.426Z,93639.41
2018-02-09T14:24:27.526Z,93639.98
2018-02-09T14:26:55.565Z,93638.02
2018-02-09T14:29:23.455Z,93640.97
2018-02-09T14:31:51.530Z,93634.99
2018-02-09T14:34:19.617Z,93637.41
2018-02-09T14:36:47.584Z,93636.23
2018-02-09T14:39:15.667Z,93637.34
2018-02-09T14:41:43.618Z,93640.49
2018-02-09T14:44:11.459Z,93632.79
2018-02-09T14:46:39.424Z,93633.29
2018-02-09T14:49:07.348Z,93635.19
2018-02-09T14:51:35.208Z,93632.00
2018-02-09T14:54:03.025Z,93632.42
2018-02-09T14:56:31.038Z,93630.24
2018-02-09T14:58:59.013Z,93630.74
2018-02-09T15:01:27.289Z,93633.05
2018-02-09T15:03:55.943Z,93625.42
2018-02-09T15:06:24.114Z,93625.80
2018-02-09T15:08:51.975Z,93626.27
2018-02-09T15:11:20.952Z,93633.36
2018-02-09T15:13:49.069Z,93628.47
2018-02-09T15:16:17.252Z,93632.48
2018-02-09T15:18:45.325Z,93627.44
2018-02-09T15:21:13.363Z,93635.72
2018-02-09T15:23:41.434Z,93631.61
2018-02-09T15:26:10.371Z,93635.36
2018-02-09T15:28:38.099Z,93629.95
2018-02-09T15:31:05.935Z,93630.19
2018-02-09T15:33:33.758Z,93631.33
2018-02-09T15:36:01.892Z,93634.83
2018-02-09T15:38:29.797Z,93628.77
2018-02-09T15:40:57.565Z,93637.41
2018-02-09T15:43:25.337Z,93631.59
2018-02-09T15:45:53.106Z,93632.66
2018-02-09T15:48:20.829Z,93630.74
2018-02-09T15:50:48.599Z,93629.66
2018-02-09T15:53:16.273Z,93623.72
2018-02-09T15:55:44.052Z,93626.17
2018-02-09T15:58:11.860Z,93631.52
2018-02-09T16:00:39.653Z,93635.16
2018-02-09T16:03:07.536Z,93638.34
2018-02-09T16:05:35.496Z,93638.59
2018-02-09T16:08:03.484Z,93633.25
2018-02-09T16:10:31.440Z,93634.50
2018-02-09T16:12:59.150Z,93634.41
2018-02-09T16:15:29.134Z,93641.13
2018-02-09T16:17:57.933Z,93633.61
2018-02-09T16:20:27.317Z,93639.89
2018-02-09T16:22:55.610Z,93639.72
2018-02-09T16:25:23.458Z,93640.31
2018-02-09T16:27:51.524Z,93645.75
2018-02-09T16:30:20.222Z,93649.92
2018-02-09T16:32:50.937Z,93653.77
2018-02-09T16:35:19.310Z,93660.50
2018-02-09T16:37:48.016Z,93653.48
2018-02-09T16:40:16.521Z,93655.30
2018-02-09T16:42:44.990Z,93654.16
2018-02-09T16:45:13.927Z,93654.84
2018-02-09T16:47:43.474Z,93650.34
2018-02-09T16:50:11.425Z,93654.50
2018-02-09T16:52:40.619Z,93659.46
2018-02-09T16:55:08.731Z,93655.30
2018-02-09T16:57:36.759Z,93660.02
2018-02-09T17:00:04.822Z,93660.03
2018-02-09T17:02:32.639Z,93663.38
2018-02-09T17:05:01.937Z,93664.83
2018-02-09T17:07:29.724Z,93670.94
2018-02-09T17:09:57.766Z,93678.47
2018-02-09T17:12:26.445Z,93684.14
2018-02-09T17:14:54.181Z,93692.20
2018-02-09T17:17:21.929Z,93684.67
2018-02-09T17:19:50.757Z,93688.58
2018-02-09T17:22:18.771Z,93697.61
2018-02-09T17:24:47.843Z,93701.48
2018-02-09T17:27:15.585Z,93694.96
2018-02-09T17:29:44.795Z,93700.21
2018-02-09T17:32:12.879Z,93696.16
2018-02-09T17:34:40.712Z,93707.39
2018-02-09T17:37:08.716Z,93703.66
2018-02-09T17:39:36.485Z,93707.09
2018-02-09T17:42:04.359Z,93706.63
2018-02-09T17:44:32.090Z,93709.42
2018-02-09T17:46:59.876Z,93713.18
2018-02-09T17:49:27.553Z,93715.17
2018-02-09T17:51:55.341Z,93716.83
2018-02-09T17:54:23.152Z,93712.52
2018-02-09T17:56:50.836Z,93713.87
2018-02-09T17:59:18.597Z,93717.70
2018-02-09T18:01:46.324Z,93721.23
2018-02-09T18:04:14.090Z,93718.99
2018-02-09T18:06:42.796Z,93726.12
2018-02-09T18:09:10.529Z,93721.59
2018-02-09T18:11:38.360Z,93724.33
2018-02-09T18:14:06.127Z,93733.06
2018-02-09T18:16:33.942Z,93731.13
2018-02-09T18:19:01.750Z,93733.47
2018-02-09T18:21:29.541Z,93731.94
2018-02-09T18:23:57.588Z,93730.15
2018-02-09T18:26:25.612Z,93734.39
2018-02-09T18:28:53.475Z,93736.59
2018-02-09T18:31:21.284Z,93745.05
2018-02-09T18:33:49.688Z,93737.80
2018-02-09T18:36:17.641Z,93741.78
2018-02-09T18:38:46.322Z,93739.39
2018-02-09T18:41:14.046Z,93739.70
2018-02-09T18:43:41.794Z,93741.42
2018-02-09T18:46:09.682Z,93736.39
2018-02-09T18:48:37.406Z,93744.06
2018-02-09T18:51:07.066Z,93741.02
2018-02-09T18:53:35.058Z,93740.09
2018-02-09T18:56:02.821Z,93738.81
2018-02-09T18:58:30.823Z,93745.34
2018-02-09T19:00:59.514Z,93742.81
2018-02-09T19:03:29.292Z,93746.55
2018-02-09T19:05:57.089Z,93745.44
2018-02-09T19:08:24.920Z,93747.97
2018-02-09T19:10:53.650Z,93747.91
2018-02-09T19:13:21.769Z,93751.81
2018-02-09T19:15:49.829Z,93749.56
2018-02-09T19:18:18.742Z,93749.89
2018-02-09T19:20:46.559Z,93751.55
2018-02-09T19:23:15.524Z,93755.45
2018-02-09T19:25:43.840Z,93747.74
2018-02-09T19:28:11.709Z,93749.97
2018-02-09T19:30:40.662Z,93755.44
2018-02-09T19:33:09.334Z,93751.96
2018-02-09T19:35:39.572Z,93752.04
2018-02-09T19:38:09.053Z,93754.75
2018-02-09T19:40:36.875Z,93758.59
2018-02-09T19:43:06.344Z,93759.63
2018-02-09T19:45:34.464Z,93753.13
2018-02-09T19:48:02.305Z,93752.07
2018-02-09T19:50:30.105Z,93758.02
2018-02-09T19:52:57.894Z,93753.17
2018-02-09T19:55:26.068Z,93755.97
2018-02-09T19:57:53.976Z,93760.81
2018-02-09T20:00:21.789Z,93759.67
2018-02-09T20:02:49.611Z,93764.47
2018-02-09T20:05:17.562Z,93764.16
2018-02-09T20:07:45.335Z,93765.83
2018-02-09T20:10:13.176Z,93768.03
2018-02-09T20:12:40.984Z,93771.25
2018-02-09T20:15:08.735Z,93774.67
2018-02-09T20:17:36.557Z,93771.03
2018-02-09T20:20:04.428Z,93774.99
2018-02-09T20:22:32.284Z,93772.96
2018-02-09T20:25:00.052Z,93770.88
2018-02-09T20:27:27.912Z,93773.66
2018-02-09T20:29:55.642Z,93775.09
2018-02-09T20:32:23.445Z,93771.69
2018-02-09T20:34:51.305Z,93768.91
2018-02-09T20:37:19.001Z,93781.41
2018-02-09T20:39:47.328Z,93779.21
2018-02-09T20:42:15.078Z,93778.09
2018-02-09T20:44:42.808Z,93774.67
2018-02-09T20:47:10.639Z,93772.55
2018-02-09T20:49:38.442Z,93784.75
2018-02-09T20:52:06.230Z,93781.51
2018-02-09T20:54:34.050Z,93780.28
2018-02-09T20:57:01.783Z,93781.01
2018-02-09T20:59:30.553Z,93786.55
2018-02-09T21:01:58.433Z,93784.13
2018-02-09T21:04:26.254Z,93788.77
2018-02-09T21:06:54.097Z,93791.70
2018-02-09T21:09:21.878Z,93784.41
2018-02-09T21:11:49.720Z,93795.67
2018-02-09T21:14:17.457Z,93794.10
2018-02-09T21:16:45.611Z,93794.97
2018-02-09T21:19:14.344Z,93796.16
2018-02-09T21:21:42.443Z,93796.22
2018-02-09T21:24:10.171Z,93795.62
2018-02-09T21:26:37.950Z,93796.83
2018-02-09T21:29:05.751Z,93801.39
2018-02-09T21:31:34.150Z,93804.50
2018-02-09T21:34:01.887Z,93799.02
2018-02-09T21:36:29.753Z,93799.66
2018-02-09T21:38:57.616Z,93793.77
2018-02-09T21:41:25.347Z,93796.75
2018-02-09T21:43:53.312Z,93796.73
2018-02-09T21:46:21.126Z,93795.87
2018-02-09T21:48:49.058Z,93795.97
2018-02-09T21:51:17.067Z,93793.48
2018-02-09T21:53:44.914Z,93790.09
2018-02-09T21:56:14.650Z,93793.02
2018-02-09T21:58:42.469Z,93791.75
2018-02-09T22:01:10.277Z,93781.81
2018-02-09T22:03:38.022Z,93789.31
2018-02-09T22:06:07.059Z,93787.19
2018-02-09T22:08:34.725Z,93794.48
2018-02-09T22:11:02.480Z,93788.20
2018-02-09T22:13:30.203Z,93789.97
2018-02-09T22:15:57.902Z,93789.05
2018-02-09T22:18:25.656Z,93792.78
2018-02-09T22:20:53.443Z,93789.88
2018-02-09T22:23:21.229Z,93786.78
2018-02-09T22:25:48.999Z,93793.70
2018-02-09T22:28:16.863Z,93793.18
2018-02-09T22:30:44.581Z,93787.00
2018-02-09T22:33:12.322Z,93787.95
2018-02-09T22:35:40.068Z,93786.53
2018-02-09T22:38:07.794Z,93796.24
2018-02-09T22:40:35.563Z,93794.42
2018-02-09T22:43:03.251Z,93789.97
2018-02-09T22:45:31.925Z,93795.82
2018-02-09T22:47:59.646Z,93794.20
2018-02-09T22:50:27.402Z,93790.41
2018-02-09T22:52:55.124Z,93782.78
2018-02-09T22:55:22.787Z,93787.34
2018-02-09T22:57:50.540Z,93789.11
2018-02-09T23:00:18.303Z,93782.02
2018-02-09T23:02:46.037Z,93788.20
2018-02-09T23:05:13.896Z,93784.44
2018-02-09T23:07:41.590Z,93785.19
2018-02-09T23:10:09.375Z,93787.48
2018-02-09T23:12:37.080Z,93791.14
2018-02-09T23:15:04.867Z,93786.12
2018-02-09T23:17:33.231Z,93786.72
2018-02-09T23:20:00.985Z,93785.83
2018-02-09T23:22:28.658Z,93782.37
2018-02-09T23:24:56.336Z,93785.41
2018-02-09T23:27:24.054Z,93779.98
2018-02-09T23:29:51.899Z,93784.85
2018-02-09T23:32:19.601Z,93790.41
2018-02-09T23:34:47.302Z,93795.12
2018-02-09T23:37:15.043Z,93794.81
2018-02-09T23:39:42.732Z,93795.02
2018-02-09T23:42:10.482Z,93793.55
2018-02-09T23:44:38.207Z,93798.70
2018-02-09T23:47:05.976Z,93796.83
2018-02-09T23:49:33.678Z,93803.52
2018-02-09T23:52:01.418Z,93798.97
2018-02-09T23:54:29.115Z,93796.17
2018-02-09T23:56:56.861Z,93792.89
2018-02-09T23:59:24.537Z,93797.07
